createdAt,value
2022-08-30T00:00:04.986Z,1004.64
2022-08-30T00:00:14.967Z,1004.62
2022-08-30T00:00:24.987Z,1004.65
2022-08-30T00:00:35.014Z,1004.61
2022-08-30T00:00:44.983Z,1004.65
2022-08-30T00:00:54.970Z,1004.64
2022-08-30T00:01:04.972Z,1004.62
2022-08-30T00:01:14.975Z,1004.61
2022-08-30T00:01:24.988Z,1004.66
2022-08-30T00:01:34.965Z,1004.65
2022-08-30T00:01:44.979Z,1004.64
2022-08-30T00:01:54.981Z,1004.67
2022-08-30T00:02:04.971Z,1004.65
2022-08-30T00:02:15.010Z,1004.66
2022-08-30T00:02:25.347Z,1004.65
2022-08-30T00:02:35.029Z,1004.65
2022-08-30T00:02:45.093Z,1004.61
2022-08-30T00:02:55.150Z,1004.67
2022-08-30T00:03:05.026Z,1004.67
2022-08-30T00:03:15.210Z,1004.67
2022-08-30T00:03:25.078Z,1004.67
2022-08-30T00:03:35.142Z,1004.67
2022-08-30T00:03:45.163Z,1004.65
2022-08-30T00:03:55.220Z,1004.62
2022-08-30T00:04:05.035Z,1004.66
2022-08-30T00:04:14.952Z,1004.68
2022-08-30T00:04:24.975Z,1004.68
2022-08-30T00:04:34.954Z,1004.70
2022-08-30T00:04:44.964Z,1004.69
2022-08-30T00:04:54.964Z,1004.67
2022-08-30T00:05:04.994Z,1004.68
2022-08-30T00:05:14.971Z,1004.63
2022-08-30T00:05:24.968Z,1004.67
2022-08-30T00:05:34.946Z,1004.66
2022-08-30T00:05:44.953Z,1004.67
2022-08-30T00:05:56.273Z,1004.67
2022-08-30T00:06:04.962Z,1004.66
2022-08-30T00:06:14.960Z,1004.62
2022-08-30T00:06:24.945Z,1004.67
2022-08-30T00:06:34.966Z,1004.69
2022-08-30T00:06:44.944Z,1004.67
2022-08-30T00:06:54.937Z,1004.68
2022-08-30T00:07:04.946Z,1004.68
2022-08-30T00:07:14.963Z,1004.66
2022-08-30T00:07:24.948Z,1004.64
2022-08-30T00:07:34.962Z,1004.68
2022-08-30T00:07:44.972Z,1004.65
2022-08-30T00:07:54.932Z,1004.69
2022-08-30T00:08:04.959Z,1004.67
2022-08-30T00:08:14.943Z,1004.72
2022-08-30T00:08:24.938Z,1004.68
2022-08-30T00:08:34.951Z,1004.68
2022-08-30T00:08:44.933Z,1004.71
2022-08-30T00:08:54.931Z,1004.72
2022-08-30T00:09:04.957Z,1004.68
2022-08-30T00:09:14.930Z,1004.72
2022-08-30T00:09:24.933Z,1004.72
2022-08-30T00:09:34.928Z,1004.73
2022-08-30T00:09:44.987Z,1004.68
2022-08-30T00:09:54.941Z,1004.69
2022-08-30T00:10:04.929Z,1004.72
2022-08-30T00:10:14.985Z,1004.68
2022-08-30T00:10:24.926Z,1004.67
2022-08-30T00:10:34.957Z,1004.71
2022-08-30T00:10:44.933Z,1004.71
2022-08-30T00:10:55.680Z,1004.67
2022-08-30T00:11:04.942Z,1004.75
2022-08-30T00:11:14.923Z,1004.72
2022-08-30T00:11:24.943Z,1004.68
2022-08-30T00:11:34.917Z,1004.68
2022-08-30T00:11:44.936Z,1004.74
2022-08-30T00:11:54.972Z,1004.70
2022-08-30T00:12:04.922Z,1004.68
2022-08-30T00:12:14.935Z,1004.70
2022-08-30T00:12:24.920Z,1004.69
2022-08-30T00:12:34.916Z,1004.71
2022-08-30T00:12:44.929Z,1004.74
2022-08-30T00:12:54.920Z,1004.70
2022-08-30T00:13:04.919Z,1004.74
2022-08-30T00:13:15.081Z,1004.72
2022-08-30T00:13:24.915Z,1004.75
2022-08-30T00:13:34.919Z,1004.71
2022-08-30T00:13:44.921Z,1004.75
2022-08-30T00:13:54.923Z,1004.76
2022-08-30T00:14:05.040Z,1004.72
2022-08-30T00:14:14.942Z,1004.75
2022-08-30T00:14:24.910Z,1004.78
2022-08-30T00:14:34.912Z,1004.74
2022-08-30T00:14:44.927Z,1004.75
2022-08-30T00:14:54.926Z,1004.71
2022-08-30T00:15:04.905Z,1004.71
2022-08-30T00:15:14.917Z,1004.75
2022-08-30T00:15:25.001Z,1004.73
2022-08-30T00:15:34.963Z,1004.75
2022-08-30T00:15:44.979Z,1004.74
2022-08-30T00:15:54.945Z,1004.73
2022-08-30T00:16:05.120Z,1004.73
2022-08-30T00:16:15.003Z,1004.75
2022-08-30T00:16:25.051Z,1004.77
2022-08-30T00:16:34.908Z,1004.75
2022-08-30T00:16:44.904Z,1004.75
2022-08-30T00:16:54.901Z,1004.77
2022-08-30T00:17:04.935Z,1004.76
2022-08-30T00:17:14.896Z,1004.76
2022-08-30T00:17:24.904Z,1004.80
2022-08-30T00:17:34.917Z,1004.80
2022-08-30T00:17:44.894Z,1004.75
2022-08-30T00:17:54.921Z,1004.74
2022-08-30T00:18:04.901Z,1004.78
2022-08-30T00:18:14.895Z,1004.76
2022-08-30T00:18:25.647Z,1004.77
2022-08-30T00:18:34.894Z,1004.78
2022-08-30T00:18:44.885Z,1004.77
2022-08-30T00:18:54.890Z,1004.75
2022-08-30T00:19:04.890Z,1004.79
2022-08-30T00:19:14.966Z,1004.78
2022-08-30T00:19:24.913Z,1004.77
2022-08-30T00:19:34.900Z,1004.78
2022-08-30T00:19:44.965Z,1004.76
2022-08-30T00:19:54.895Z,1004.79
2022-08-30T00:20:04.879Z,1004.77
2022-08-30T00:20:14.914Z,1004.77
2022-08-30T00:20:24.896Z,1004.76
2022-08-30T00:20:34.935Z,1004.71
2022-08-30T00:20:44.928Z,1004.71
2022-08-30T00:20:54.892Z,1004.74
2022-08-30T00:21:04.877Z,1004.78
2022-08-30T00:21:14.884Z,1004.77
2022-08-30T00:21:24.875Z,1004.75
2022-08-30T00:21:34.900Z,1004.71
2022-08-30T00:21:44.893Z,1004.76
2022-08-30T00:21:54.879Z,1004.76
2022-08-30T00:22:05.660Z,1004.76
2022-08-30T00:22:14.897Z,1004.76
2022-08-30T00:22:24.869Z,1004.76
2022-08-30T00:22:34.870Z,1004.76
2022-08-30T00:22:44.868Z,1004.77
2022-08-30T00:22:54.873Z,1004.75
2022-08-30T00:23:04.872Z,1004.79
2022-08-30T00:23:14.993Z,1004.78
2022-08-30T00:23:24.868Z,1004.76
2022-08-30T00:23:34.884Z,1004.76
2022-08-30T00:23:44.884Z,1004.78
2022-08-30T00:23:54.863Z,1004.75
2022-08-30T00:24:04.861Z,1004.74
2022-08-30T00:24:15.665Z,1004.76
2022-08-30T00:24:25.652Z,1004.74
2022-08-30T00:24:34.871Z,1004.76
2022-08-30T00:24:44.932Z,1004.76
2022-08-30T00:24:54.860Z,1004.76
2022-08-30T00:25:04.891Z,1004.71
2022-08-30T00:25:14.871Z,1004.73
2022-08-30T00:25:24.858Z,1004.75
2022-08-30T00:25:34.871Z,1004.72
2022-08-30T00:25:45.220Z,1004.72
2022-08-30T00:25:54.855Z,1004.74
2022-08-30T00:26:04.862Z,1004.73
2022-08-30T00:26:14.881Z,1004.73
2022-08-30T00:26:24.887Z,1004.73
2022-08-30T00:26:34.861Z,1004.72
2022-08-30T00:26:44.848Z,1004.77
2022-08-30T00:26:54.856Z,1004.74
2022-08-30T00:27:04.867Z,1004.74
2022-08-30T00:27:14.857Z,1004.76
2022-08-30T00:27:24.854Z,1004.75
2022-08-30T00:27:34.917Z,1004.72
2022-08-30T00:27:44.849Z,1004.74
2022-08-30T00:27:54.864Z,1004.72
2022-08-30T00:28:04.858Z,1004.76
2022-08-30T00:28:14.851Z,1004.73
2022-08-30T00:28:24.893Z,1004.74
2022-08-30T00:28:34.875Z,1004.76
2022-08-30T00:28:44.839Z,1004.75
2022-08-30T00:28:54.853Z,1004.74
2022-08-30T00:29:04.836Z,1004.75
2022-08-30T00:29:14.857Z,1004.75
2022-08-30T00:29:25.701Z,1004.73
2022-08-30T00:29:34.841Z,1004.76
2022-08-30T00:29:44.839Z,1004.80
2022-08-30T00:29:54.863Z,1004.76
2022-08-30T00:30:04.834Z,1004.78
2022-08-30T00:30:14.837Z,1004.76
2022-08-30T00:30:24.877Z,1004.74
2022-08-30T00:30:34.873Z,1004.76
2022-08-30T00:30:44.913Z,1004.70
2022-08-30T00:30:54.937Z,1004.73
2022-08-30T00:31:04.884Z,1004.75
2022-08-30T00:31:15.581Z,1004.72
2022-08-30T00:31:24.899Z,1004.74
2022-08-30T00:31:34.882Z,1004.73
2022-08-30T00:31:44.840Z,1004.76
2022-08-30T00:31:54.845Z,1004.78
2022-08-30T00:32:05.653Z,1004.74
2022-08-30T00:32:14.845Z,1004.70
2022-08-30T00:32:24.824Z,1004.72
2022-08-30T00:32:34.862Z,1004.71
2022-08-30T00:32:44.891Z,1004.73
2022-08-30T00:32:54.830Z,1004.68
2022-08-30T00:33:04.834Z,1004.74
2022-08-30T00:33:14.874Z,1004.74
2022-08-30T00:33:24.823Z,1004.71
2022-08-30T00:33:34.842Z,1004.75
2022-08-30T00:33:44.836Z,1004.73
2022-08-30T00:33:54.836Z,1004.72
2022-08-30T00:34:04.829Z,1004.73
2022-08-30T00:34:14.836Z,1004.72
2022-08-30T00:34:24.824Z,1004.74
2022-08-30T00:34:34.838Z,1004.71
2022-08-30T00:34:44.821Z,1004.72
2022-08-30T00:34:54.917Z,1004.72
2022-08-30T00:35:04.823Z,1004.73
2022-08-30T00:35:14.823Z,1004.73
2022-08-30T00:35:24.821Z,1004.70
2022-08-30T00:35:34.828Z,1004.73
2022-08-30T00:35:44.814Z,1004.70
2022-08-30T00:35:54.813Z,1004.70
2022-08-30T00:36:04.877Z,1004.70
2022-08-30T00:36:14.841Z,1004.70
2022-08-30T00:36:24.819Z,1004.70
2022-08-30T00:36:34.820Z,1004.72
2022-08-30T00:36:44.817Z,1004.71
2022-08-30T00:36:54.882Z,1004.67
2022-08-30T00:37:04.819Z,1004.68
2022-08-30T00:37:14.810Z,1004.69
2022-08-30T00:37:24.821Z,1004.70
2022-08-30T00:37:34.824Z,1004.70
2022-08-30T00:37:44.815Z,1004.73
2022-08-30T00:37:54.823Z,1004.72
2022-08-30T00:38:04.807Z,1004.72
2022-08-30T00:38:14.810Z,1004.71
2022-08-30T00:38:24.812Z,1004.72
2022-08-30T00:38:34.820Z,1004.72
2022-08-30T00:38:44.796Z,1004.73
2022-08-30T00:38:54.830Z,1004.74
2022-08-30T00:39:04.798Z,1004.72
2022-08-30T00:39:15.658Z,1004.72
2022-08-30T00:39:24.795Z,1004.74
2022-08-30T00:39:34.799Z,1004.74
2022-08-30T00:39:44.820Z,1004.74
2022-08-30T00:39:54.808Z,1004.71
2022-08-30T00:40:04.895Z,1004.72
2022-08-30T00:40:15.777Z,1004.75
2022-08-30T00:40:27.145Z,1004.74
2022-08-30T00:40:34.833Z,1004.78
2022-08-30T00:40:44.832Z,1004.73
2022-08-30T00:40:54.832Z,1004.76
2022-08-30T00:41:05.689Z,1004.74
2022-08-30T00:41:14.840Z,1004.75
2022-08-30T00:41:24.799Z,1004.77
2022-08-30T00:41:34.797Z,1004.75
2022-08-30T00:41:44.787Z,1004.80
2022-08-30T00:41:54.788Z,1004.79
2022-08-30T00:42:04.799Z,1004.77
2022-08-30T00:42:14.813Z,1004.73
2022-08-30T00:42:24.781Z,1004.78
2022-08-30T00:42:34.816Z,1004.79
2022-08-30T00:42:44.846Z,1004.77
2022-08-30T00:42:58.667Z,1004.82
2022-08-30T00:43:05.971Z,1004.81
2022-08-30T00:43:14.961Z,1004.75
2022-08-30T00:43:24.778Z,1004.80
2022-08-30T00:43:34.797Z,1004.80
2022-08-30T00:43:44.787Z,1004.82
2022-08-30T00:43:54.792Z,1004.81
2022-08-30T00:44:04.788Z,1004.83
2022-08-30T00:44:14.783Z,1004.85
2022-08-30T00:44:24.776Z,1004.86
2022-08-30T00:44:34.794Z,1004.83
2022-08-30T00:44:44.772Z,1004.87
2022-08-30T00:44:54.790Z,1004.83
2022-08-30T00:45:05.666Z,1004.86
2022-08-30T00:45:14.809Z,1004.87
2022-08-30T00:45:24.777Z,1004.86
2022-08-30T00:45:34.773Z,1004.84
2022-08-30T00:45:44.801Z,1004.82
2022-08-30T00:45:54.858Z,1004.90
2022-08-30T00:46:04.949Z,1004.89
2022-08-30T00:46:14.791Z,1004.84
2022-08-30T00:46:24.893Z,1004.89
2022-08-30T00:46:34.849Z,1004.87
2022-08-30T00:46:44.795Z,1004.85
2022-08-30T00:46:54.781Z,1004.88
2022-08-30T00:47:04.769Z,1004.87
2022-08-30T00:47:15.672Z,1004.90
2022-08-30T00:47:24.758Z,1004.92
2022-08-30T00:47:34.774Z,1004.89
2022-08-30T00:47:44.767Z,1004.90
2022-08-30T00:47:54.796Z,1004.91
2022-08-30T00:48:04.760Z,1004.88
2022-08-30T00:48:14.778Z,1004.89
2022-08-30T00:48:24.761Z,1004.89
2022-08-30T00:48:34.801Z,1004.90
2022-08-30T00:48:44.766Z,1004.85
2022-08-30T00:48:54.791Z,1004.88
2022-08-30T00:49:04.752Z,1004.91
2022-08-30T00:49:14.769Z,1004.91
2022-08-30T00:49:24.818Z,1004.88
2022-08-30T00:49:34.758Z,1004.90
2022-08-30T00:49:44.790Z,1004.86
2022-08-30T00:49:54.758Z,1004.83
2022-08-30T00:50:04.762Z,1004.86
2022-08-30T00:50:14.770Z,1004.89
2022-08-30T00:50:24.747Z,1004.89
2022-08-30T00:50:34.751Z,1004.86
2022-08-30T00:50:44.747Z,1004.84
2022-08-30T00:50:54.781Z,1004.84
2022-08-30T00:51:04.748Z,1004.89
2022-08-30T00:51:14.747Z,1004.85
2022-08-30T00:51:25.661Z,1004.84
2022-08-30T00:51:34.849Z,1004.85
2022-08-30T00:51:44.751Z,1004.89
2022-08-30T00:51:54.790Z,1004.86
2022-08-30T00:52:05.676Z,1004.82
2022-08-30T00:52:14.744Z,1004.81
2022-08-30T00:52:24.846Z,1004.85
2022-08-30T00:52:34.797Z,1004.84
2022-08-30T00:52:44.737Z,1004.81
2022-08-30T00:52:54.752Z,1004.83
2022-08-30T00:53:04.753Z,1004.80
2022-08-30T00:53:14.744Z,1004.81
2022-08-30T00:53:25.850Z,1004.82
2022-08-30T00:53:34.866Z,1004.84
2022-08-30T00:53:44.734Z,1004.84
2022-08-30T00:53:54.747Z,1004.78
2022-08-30T00:54:04.730Z,1004.83
2022-08-30T00:54:14.733Z,1004.80
2022-08-30T00:54:24.742Z,1004.80
2022-08-30T00:54:35.708Z,1004.76
2022-08-30T00:54:44.770Z,1004.80
2022-08-30T00:54:54.746Z,1004.81
2022-08-30T00:55:04.732Z,1004.77
2022-08-30T00:55:14.731Z,1004.78
2022-08-30T00:55:24.738Z,1004.79
2022-08-30T00:55:35.677Z,1004.77
2022-08-30T00:55:44.744Z,1004.75
2022-08-30T00:55:54.750Z,1004.78
2022-08-30T00:56:04.728Z,1004.75
2022-08-30T00:56:14.723Z,1004.78
2022-08-30T00:56:24.726Z,1004.77
2022-08-30T00:56:34.738Z,1004.77
2022-08-30T00:56:44.763Z,1004.77
2022-08-30T00:56:55.669Z,1004.78
2022-08-30T00:57:04.722Z,1004.76
2022-08-30T00:57:14.741Z,1004.76
2022-08-30T00:57:24.751Z,1004.79
2022-08-30T00:57:34.717Z,1004.79
2022-08-30T00:57:44.886Z,1004.76
2022-08-30T00:57:54.728Z,1004.80
2022-08-30T00:58:05.016Z,1004.78
2022-08-30T00:58:14.738Z,1004.76
2022-08-30T00:58:24.730Z,1004.77
2022-08-30T00:58:34.721Z,1004.75
2022-08-30T00:58:44.743Z,1004.76
2022-08-30T00:58:54.715Z,1004.79
2022-08-30T00:59:04.711Z,1004.78
2022-08-30T00:59:14.738Z,1004.83
2022-08-30T00:59:24.723Z,1004.76
2022-08-30T00:59:34.712Z,1004.81
2022-08-30T00:59:44.736Z,1004.74
2022-08-30T00:59:54.710Z,1004.76
2022-08-30T01:00:04.705Z,1004.71
2022-08-30T01:00:14.823Z,1004.75
2022-08-30T01:00:24.709Z,1004.75
2022-08-30T01:00:34.731Z,1004.77
2022-08-30T01:00:44.708Z,1004.80
2022-08-30T01:00:54.700Z,1004.80
2022-08-30T01:01:04.772Z,1004.73
2022-08-30T01:01:14.798Z,1004.76
2022-08-30T01:01:24.793Z,1004.75
2022-08-30T01:01:34.816Z,1004.75
2022-08-30T01:01:44.755Z,1004.79
2022-08-30T01:01:54.822Z,1004.75
2022-08-30T01:02:04.793Z,1004.75
2022-08-30T01:02:14.706Z,1004.77
2022-08-30T01:02:24.789Z,1004.78
2022-08-30T01:02:34.716Z,1004.77
2022-08-30T01:02:44.777Z,1004.77
2022-08-30T01:02:54.785Z,1004.75
2022-08-30T01:03:04.781Z,1004.76
2022-08-30T01:03:14.830Z,1004.72
2022-08-30T01:03:24.700Z,1004.76
2022-08-30T01:03:34.705Z,1004.73
2022-08-30T01:03:44.689Z,1004.75
2022-08-30T01:03:55.673Z,1004.74
2022-08-30T01:04:04.735Z,1004.75
2022-08-30T01:04:14.693Z,1004.72
2022-08-30T01:04:24.711Z,1004.75
2022-08-30T01:04:34.688Z,1004.76
2022-08-30T01:04:44.688Z,1004.75
2022-08-30T01:04:54.680Z,1004.77
2022-08-30T01:05:04.779Z,1004.71
2022-08-30T01:05:15.989Z,1004.77
2022-08-30T01:05:24.705Z,1004.75
2022-08-30T01:05:34.681Z,1004.73
2022-08-30T01:05:44.689Z,1004.76
2022-08-30T01:05:54.681Z,1004.78
2022-08-30T01:06:04.760Z,1004.75
2022-08-30T01:06:14.682Z,1004.74
2022-08-30T01:06:24.684Z,1004.79
2022-08-30T01:06:34.676Z,1004.74
2022-08-30T01:06:44.696Z,1004.73
2022-08-30T01:06:54.720Z,1004.76
2022-08-30T01:07:04.758Z,1004.78
2022-08-30T01:07:14.689Z,1004.73
2022-08-30T01:07:24.675Z,1004.76
2022-08-30T01:07:34.685Z,1004.73
2022-08-30T01:07:44.701Z,1004.70
2022-08-30T01:07:54.689Z,1004.72
2022-08-30T01:08:05.738Z,1004.76
2022-08-30T01:08:14.691Z,1004.77
2022-08-30T01:08:24.680Z,1004.78
2022-08-30T01:08:34.674Z,1004.75
2022-08-30T01:08:44.724Z,1004.75
2022-08-30T01:08:54.707Z,1004.78
2022-08-30T01:09:04.671Z,1004.74
2022-08-30T01:09:14.682Z,1004.77
2022-08-30T01:09:24.688Z,1004.75
2022-08-30T01:09:34.667Z,1004.75
2022-08-30T01:09:44.663Z,1004.74
2022-08-30T01:09:54.668Z,1004.77
2022-08-30T01:10:04.670Z,1004.77
2022-08-30T01:10:14.712Z,1004.72
2022-08-30T01:10:24.689Z,1004.78
2022-08-30T01:10:34.689Z,1004.78
2022-08-30T01:10:44.679Z,1004.78
2022-08-30T01:10:54.696Z,1004.80
2022-08-30T01:11:04.683Z,1004.75
2022-08-30T01:11:14.659Z,1004.75
2022-08-30T01:11:24.719Z,1004.79
2022-08-30T01:11:34.654Z,1004.76
2022-08-30T01:11:44.667Z,1004.80
2022-08-30T01:11:54.666Z,1004.79
2022-08-30T01:12:04.657Z,1004.78
2022-08-30T01:12:14.735Z,1004.77
2022-08-30T01:12:24.665Z,1004.75
2022-08-30T01:12:34.673Z,1004.78
2022-08-30T01:12:44.651Z,1004.76
2022-08-30T01:12:54.735Z,1004.77
2022-08-30T01:13:04.738Z,1004.80
2022-08-30T01:13:14.986Z,1004.78
2022-08-30T01:13:24.668Z,1004.78
2022-08-30T01:13:34.743Z,1004.80
2022-08-30T01:13:44.671Z,1004.79
2022-08-30T01:13:54.641Z,1004.82
2022-08-30T01:14:04.649Z,1004.79
2022-08-30T01:14:14.644Z,1004.77
2022-08-30T01:14:25.877Z,1004.80
2022-08-30T01:14:34.645Z,1004.74
2022-08-30T01:14:44.644Z,1004.81
2022-08-30T01:14:54.653Z,1004.78
2022-08-30T01:15:04.647Z,1004.80
2022-08-30T01:15:14.651Z,1004.79
2022-08-30T01:15:24.638Z,1004.81
2022-08-30T01:15:34.758Z,1004.78
2022-08-30T01:15:44.663Z,1004.80
2022-08-30T01:15:54.716Z,1004.83
2022-08-30T01:16:05.230Z,1004.83
2022-08-30T01:16:14.739Z,1004.77
2022-08-30T01:16:25.171Z,1004.78
2022-08-30T01:16:34.635Z,1004.79
2022-08-30T01:16:44.651Z,1004.78
2022-08-30T01:16:54.639Z,1004.76
2022-08-30T01:17:04.637Z,1004.81
2022-08-30T01:17:14.630Z,1004.79
2022-08-30T01:17:24.686Z,1004.77
2022-08-30T01:17:34.632Z,1004.77
2022-08-30T01:17:44.630Z,1004.81
2022-08-30T01:17:54.623Z,1004.77
2022-08-30T01:18:06.275Z,1004.79
2022-08-30T01:18:14.639Z,1004.76
2022-08-30T01:18:24.641Z,1004.78
2022-08-30T01:18:34.695Z,1004.78
2022-08-30T01:18:44.713Z,1004.76
2022-08-30T01:18:54.650Z,1004.74
2022-08-30T01:19:04.635Z,1004.77
2022-08-30T01:19:15.181Z,1004.79
2022-08-30T01:19:24.619Z,1004.75
2022-08-30T01:19:34.618Z,1004.73
2022-08-30T01:19:44.719Z,1004.77
2022-08-30T01:19:54.616Z,1004.76
2022-08-30T01:20:04.628Z,1004.77
2022-08-30T01:20:14.614Z,1004.76
2022-08-30T01:20:24.654Z,1004.78
2022-08-30T01:20:34.619Z,1004.77
2022-08-30T01:20:44.717Z,1004.75
2022-08-30T01:20:54.623Z,1004.76
2022-08-30T01:21:04.620Z,1004.75
2022-08-30T01:21:14.667Z,1004.75
2022-08-30T01:21:24.623Z,1004.75
2022-08-30T01:21:34.628Z,1004.74
2022-08-30T01:21:44.613Z,1004.79
2022-08-30T01:21:54.616Z,1004.79
2022-08-30T01:22:04.627Z,1004.73
2022-08-30T01:22:14.607Z,1004.76
2022-08-30T01:22:24.655Z,1004.73
2022-08-30T01:22:34.645Z,1004.74
2022-08-30T01:22:44.664Z,1004.74
2022-08-30T01:22:54.603Z,1004.76
2022-08-30T01:23:05.186Z,1004.77
2022-08-30T01:23:15.340Z,1004.72
2022-08-30T01:23:24.630Z,1004.73
2022-08-30T01:23:34.613Z,1004.75
2022-08-30T01:23:44.606Z,1004.74
2022-08-30T01:23:54.610Z,1004.78
2022-08-30T01:24:04.606Z,1004.79
2022-08-30T01:24:14.603Z,1004.75
2022-08-30T01:24:24.598Z,1004.77
2022-08-30T01:24:34.634Z,1004.74
2022-08-30T01:24:45.192Z,1004.76
2022-08-30T01:24:54.597Z,1004.79
2022-08-30T01:25:04.596Z,1004.76
2022-08-30T01:25:14.592Z,1004.79
2022-08-30T01:25:24.594Z,1004.75
2022-08-30T01:25:34.596Z,1004.73
2022-08-30T01:25:44.757Z,1004.75
2022-08-30T01:25:54.618Z,1004.73
2022-08-30T01:26:04.592Z,1004.77
2022-08-30T01:26:14.590Z,1004.72
2022-08-30T01:26:24.595Z,1004.75
2022-08-30T01:26:34.607Z,1004.74
2022-08-30T01:26:44.599Z,1004.77
2022-08-30T01:26:54.609Z,1004.74
2022-08-30T01:27:05.217Z,1004.73
2022-08-30T01:27:14.582Z,1004.73
2022-08-30T01:27:24.685Z,1004.75
2022-08-30T01:27:35.185Z,1004.73
2022-08-30T01:27:44.649Z,1004.73
2022-08-30T01:27:54.582Z,1004.73
2022-08-30T01:28:07.266Z,1004.76
2022-08-30T01:28:14.577Z,1004.77
2022-08-30T01:28:24.579Z,1004.74
2022-08-30T01:28:34.595Z,1004.68
2022-08-30T01:28:44.590Z,1004.74
2022-08-30T01:28:54.616Z,1004.72
2022-08-30T01:29:04.597Z,1004.73
2022-08-30T01:29:14.574Z,1004.71
2022-08-30T01:29:24.577Z,1004.72
2022-08-30T01:29:34.613Z,1004.71
2022-08-30T01:29:44.590Z,1004.72
2022-08-30T01:29:54.817Z,1004.71
2022-08-30T01:30:04.586Z,1004.71
2022-08-30T01:30:14.584Z,1004.69
2022-08-30T01:30:24.580Z,1004.72
2022-08-30T01:30:34.701Z,1004.70
2022-08-30T01:30:44.645Z,1004.73
2022-08-30T01:30:54.590Z,1004.74
2022-08-30T01:31:04.689Z,1004.70
2022-08-30T01:31:14.711Z,1004.69
2022-08-30T01:31:24.639Z,1004.69
2022-08-30T01:31:34.586Z,1004.69
2022-08-30T01:31:44.610Z,1004.72
2022-08-30T01:31:54.567Z,1004.66
2022-08-30T01:32:04.594Z,1004.66
2022-08-30T01:32:14.576Z,1004.70
2022-08-30T01:32:28.938Z,1004.70
2022-08-30T01:32:34.560Z,1004.70
2022-08-30T01:32:44.585Z,1004.70
2022-08-30T01:32:54.724Z,1004.69
2022-08-30T01:33:05.178Z,1004.71
2022-08-30T01:33:14.708Z,1004.65
2022-08-30T01:33:24.560Z,1004.66
2022-08-30T01:33:34.570Z,1004.67
2022-08-30T01:33:44.555Z,1004.62
2022-08-30T01:33:54.585Z,1004.65
2022-08-30T01:34:04.558Z,1004.63
2022-08-30T01:34:14.550Z,1004.68
2022-08-30T01:34:24.555Z,1004.65
2022-08-30T01:34:34.617Z,1004.68
2022-08-30T01:34:44.551Z,1004.70
2022-08-30T01:34:55.173Z,1004.69
2022-08-30T01:35:04.568Z,1004.67
2022-08-30T01:35:14.710Z,1004.70
2022-08-30T01:35:24.549Z,1004.68
2022-08-30T01:35:34.567Z,1004.66
2022-08-30T01:35:44.566Z,1004.66
2022-08-30T01:35:54.554Z,1004.65
2022-08-30T01:36:04.559Z,1004.62
2022-08-30T01:36:14.553Z,1004.65
2022-08-30T01:36:24.559Z,1004.63
2022-08-30T01:36:34.538Z,1004.70
2022-08-30T01:36:44.867Z,1004.69
2022-08-30T01:36:54.560Z,1004.68
2022-08-30T01:37:04.548Z,1004.65
2022-08-30T01:37:14.575Z,1004.68
2022-08-30T01:37:24.562Z,1004.66
2022-08-30T01:37:34.551Z,1004.65
2022-08-30T01:37:44.655Z,1004.64
2022-08-30T01:37:54.548Z,1004.66
2022-08-30T01:38:04.578Z,1004.68
2022-08-30T01:38:14.543Z,1004.67
2022-08-30T01:38:24.558Z,1004.71
2022-08-30T01:38:34.550Z,1004.65
2022-08-30T01:38:44.541Z,1004.66
2022-08-30T01:38:54.544Z,1004.69
2022-08-30T01:39:04.529Z,1004.69
2022-08-30T01:39:14.555Z,1004.67
2022-08-30T01:39:24.526Z,1004.62
2022-08-30T01:39:34.541Z,1004.64
2022-08-30T01:39:44.527Z,1004.67
2022-08-30T01:39:54.529Z,1004.67
2022-08-30T01:40:04.651Z,1004.64
2022-08-30T01:40:14.713Z,1004.70
2022-08-30T01:40:24.555Z,1004.68
2022-08-30T01:40:34.600Z,1004.70
2022-08-30T01:40:45.375Z,1004.70
2022-08-30T01:40:54.535Z,1004.70
2022-08-30T01:41:05.166Z,1004.70
2022-08-30T01:41:14.535Z,1004.71
2022-08-30T01:41:25.184Z,1004.70
2022-08-30T01:41:34.539Z,1004.67
2022-08-30T01:41:44.530Z,1004.73
2022-08-30T01:41:54.518Z,1004.72
2022-08-30T01:42:04.547Z,1004.69
2022-08-30T01:42:14.551Z,1004.69
2022-08-30T01:42:24.513Z,1004.69
2022-08-30T01:42:34.517Z,1004.71
2022-08-30T01:42:44.557Z,1004.71
2022-08-30T01:42:54.539Z,1004.73
2022-08-30T01:43:04.518Z,1004.71
2022-08-30T01:43:14.724Z,1004.74
2022-08-30T01:43:24.624Z,1004.72
2022-08-30T01:43:34.514Z,1004.70
2022-08-30T01:43:44.509Z,1004.77
2022-08-30T01:43:54.518Z,1004.71
2022-08-30T01:44:04.534Z,1004.72
2022-08-30T01:44:14.524Z,1004.70
2022-08-30T01:44:24.513Z,1004.71
2022-08-30T01:44:34.516Z,1004.71
2022-08-30T01:44:44.517Z,1004.77
2022-08-30T01:44:54.520Z,1004.69
2022-08-30T01:45:04.510Z,1004.71
2022-08-30T01:45:14.508Z,1004.74
2022-08-30T01:45:24.513Z,1004.73
2022-08-30T01:45:34.561Z,1004.71
2022-08-30T01:45:44.518Z,1004.75
2022-08-30T01:45:54.591Z,1004.75
2022-08-30T01:46:04.586Z,1004.71
2022-08-30T01:46:14.555Z,1004.77
2022-08-30T01:46:24.669Z,1004.76
2022-08-30T01:46:34.525Z,1004.75
2022-08-30T01:46:44.521Z,1004.73
2022-08-30T01:46:54.506Z,1004.73
2022-08-30T01:47:04.492Z,1004.72
2022-08-30T01:47:14.512Z,1004.77
2022-08-30T01:47:24.503Z,1004.75
2022-08-30T01:47:34.566Z,1004.75
2022-08-30T01:47:44.498Z,1004.76
2022-08-30T01:47:54.507Z,1004.77
2022-08-30T01:48:06.558Z,1004.75
2022-08-30T01:48:15.194Z,1004.75
2022-08-30T01:48:26.535Z,1004.76
2022-08-30T01:48:34.492Z,1004.73
2022-08-30T01:48:47.337Z,1004.77
2022-08-30T01:48:54.606Z,1004.74
2022-08-30T01:49:04.487Z,1004.77
2022-08-30T01:49:14.505Z,1004.75
2022-08-30T01:49:27.776Z,1004.72
2022-08-30T01:49:34.486Z,1004.73
2022-08-30T01:49:44.541Z,1004.71
2022-08-30T01:49:55.184Z,1004.72
2022-08-30T01:50:04.481Z,1004.73
2022-08-30T01:50:14.527Z,1004.72
2022-08-30T01:50:24.488Z,1004.73
2022-08-30T01:50:34.492Z,1004.75
2022-08-30T01:50:44.496Z,1004.74
2022-08-30T01:50:54.478Z,1004.74
2022-08-30T01:51:04.506Z,1004.71
2022-08-30T01:51:14.475Z,1004.73
2022-08-30T01:51:24.477Z,1004.78
2022-08-30T01:51:34.474Z,1004.71
2022-08-30T01:51:44.518Z,1004.77
2022-08-30T01:52:00.834Z,1004.75
2022-08-30T01:52:04.492Z,1004.77
2022-08-30T01:52:14.504Z,1004.75
2022-08-30T01:52:24.472Z,1004.77
2022-08-30T01:52:34.472Z,1004.73
2022-08-30T01:52:45.179Z,1004.74
2022-08-30T01:52:54.473Z,1004.75
2022-08-30T01:53:04.472Z,1004.74
2022-08-30T01:53:14.466Z,1004.75
2022-08-30T01:53:24.481Z,1004.75
2022-08-30T01:53:34.521Z,1004.76
2022-08-30T01:53:45.199Z,1004.68
2022-08-30T01:53:54.521Z,1004.74
2022-08-30T01:54:04.461Z,1004.75
2022-08-30T01:54:14.464Z,1004.75
2022-08-30T01:54:24.464Z,1004.74
2022-08-30T01:54:38.050Z,1004.73
2022-08-30T01:54:44.461Z,1004.77
2022-08-30T01:54:54.459Z,1004.81
2022-08-30T01:55:04.458Z,1004.77
2022-08-30T01:55:14.469Z,1004.78
2022-08-30T01:55:24.470Z,1004.76
2022-08-30T01:55:34.468Z,1004.81
2022-08-30T01:55:44.474Z,1004.80
2022-08-30T01:55:54.465Z,1004.78
2022-08-30T01:56:04.464Z,1004.81
2022-08-30T01:56:14.454Z,1004.72
2022-08-30T01:56:24.460Z,1004.78
2022-08-30T01:56:34.462Z,1004.82
2022-08-30T01:56:44.474Z,1004.79
2022-08-30T01:56:54.450Z,1004.82
2022-08-30T01:57:04.448Z,1004.80
2022-08-30T01:57:14.449Z,1004.75
2022-08-30T01:57:24.444Z,1004.79
2022-08-30T01:57:34.451Z,1004.79
2022-08-30T01:57:44.481Z,1004.78
2022-08-30T01:57:54.446Z,1004.78
2022-08-30T01:58:04.613Z,1004.78
2022-08-30T01:58:14.482Z,1004.75
2022-08-30T01:58:24.449Z,1004.78
2022-08-30T01:58:34.475Z,1004.79
2022-08-30T01:58:44.477Z,1004.78
2022-08-30T01:58:54.441Z,1004.76
2022-08-30T01:59:04.453Z,1004.77
2022-08-30T01:59:15.202Z,1004.76
2022-08-30T01:59:24.436Z,1004.75
2022-08-30T01:59:34.455Z,1004.73
2022-08-30T01:59:44.435Z,1004.74
2022-08-30T01:59:54.439Z,1004.77
2022-08-30T02:00:04.450Z,1004.75
2022-08-30T02:00:14.435Z,1004.77
2022-08-30T02:00:24.432Z,1004.74
2022-08-30T02:00:34.473Z,1004.75
2022-08-30T02:00:44.430Z,1004.73
2022-08-30T02:00:54.555Z,1004.75